createdAt,value
2022-10-26T06:15:35.806Z,133.31
2022-10-26T06:25:35.514Z,136.69
2022-10-26T06:35:35.647Z,111.45
2022-10-26T06:45:35.566Z,90.00
2022-10-26T06:55:35.598Z,103.61
2022-10-26T07:05:35.556Z,153.72
2022-10-26T07:15:35.636Z,135.00
2022-10-26T07:25:35.773Z,121.51
2022-10-26T07:35:35.691Z,131.78
2022-10-26T07:45:35.789Z,135.44
2022-10-26T07:55:35.707Z,130.17
2022-10-26T08:05:35.660Z,131.89
2022-10-26T08:15:35.735Z,148.22
2022-10-26T08:25:35.685Z,154.87
2022-10-26T08:35:35.799Z,155.48
2022-10-26T08:45:37.083Z,167.69
2022-10-26T08:55:36.050Z,161.78
2022-10-26T09:05:36.933Z,156.52
2022-10-26T09:15:36.064Z,152.44
2022-10-26T09:25:36.060Z,154.53
2022-10-26T09:35:36.107Z,158.64
2022-10-26T09:45:35.969Z,164.99
2022-10-26T09:55:35.923Z,153.95
2022-10-26T10:05:51.232Z,157.81
2022-10-26T10:15:35.959Z,153.12
2022-10-26T10:25:36.107Z,161.84
2022-10-26T10:35:35.855Z,161.09
2022-10-26T10:45:36.165Z,151.76
2022-10-26T10:55:36.008Z,165.12
2022-10-26T11:05:36.029Z,166.81
2022-10-26T11:15:36.152Z,155.33
2022-10-26T11:25:35.984Z,162.81
2022-10-26T11:35:36.026Z,156.84
2022-10-26T11:45:36.056Z,166.19
2022-10-26T11:55:36.038Z,164.82
2022-10-26T12:05:35.950Z,148.90
2022-10-26T12:16:01.615Z,148.63
2022-10-26T12:25:36.042Z,159.59
2022-10-26T12:35:36.039Z,163.41
2022-10-26T12:45:36.137Z,166.62
2022-10-26T12:55:36.045Z,169.48
2022-10-26T13:05:36.115Z,150.12
2022-10-26T13:15:36.002Z,150.14
2022-10-26T13:25:36.181Z,158.59
2022-10-26T13:35:36.056Z,148.08
2022-10-26T13:45:36.053Z,152.87
2022-10-26T13:55:36.128Z,137.17
2022-10-26T14:05:36.127Z,143.05
2022-10-26T14:15:36.174Z,153.32
2022-10-26T14:25:42.190Z,165.52
2022-10-26T14:35:36.273Z,175.27
2022-10-26T14:45:48.959Z,178.78
2022-10-26T14:55:36.129Z,179.16
2022-10-26T15:05:36.205Z,179.90
2022-10-26T15:15:38.911Z,178.91
2022-10-26T15:25:36.308Z,179.56
2022-10-26T15:35:36.168Z,180.00
2022-10-26T15:45:36.133Z,179.26
2022-10-26T15:55:36.216Z,180.00
2022-10-26T16:05:36.156Z,180.00
2022-10-26T16:15:36.285Z,180.00
2022-10-26T16:25:36.346Z,180.00
2022-10-26T16:35:36.525Z,179.65
2022-10-26T16:45:36.446Z,179.10
2022-10-26T16:55:36.612Z,180.00
2022-10-26T17:05:36.526Z,180.00
2022-10-26T17:15:36.418Z,179.25
2022-10-26T17:25:36.505Z,175.26
2022-10-26T17:35:36.528Z,161.94
2022-10-26T17:45:36.594Z,165.42
2022-10-26T17:55:36.487Z,179.14
2022-10-26T18:05:36.466Z,178.94
2022-10-26T18:15:36.422Z,180.00
2022-10-26T18:25:36.681Z,180.00
2022-10-26T18:35:36.541Z,180.00
2022-10-26T18:45:36.485Z,179.51
2022-10-26T18:55:36.614Z,180.00
2022-10-26T19:05:36.695Z,180.00
2022-10-26T19:15:36.592Z,180.00
